Big Bear Station Historical Data
Daily Summary for May 28, 2019 Units:  English    Metric   Both
Next Day »
Daily Weekly Monthly Yearly Custom
  High: Low: Average:
Temperature: 63 °F 30.7 °F 45 °F
Dew Point: 44.9 °F 30.1 °F 36.8 °F
Humidity: 99% 43% 76%
Wind Speed: 7.3mph 0mph 1.7mph
Wind Gust: -999mph - -
Wind- - West
Pressure: 23.44 in 23.39 in -
Precipitation: 0 in    
Historical Graphs
 
 
Tabular Data for May 28, 2019
Time Temperature Dew Point Pressure Wind Wind Speed Wind Gust Humidity Rainfall Rate (Hourly)
00:03 31.8 °F 30.3 °F 23.40 in Calm   -999 mph 94% 0.00 in
00:18 31.6 °F 30.3 °F 23.40 in Calm   -999 mph 95% 0.00 in
00:33 32 °F 31 °F 23.40 in Calm   -999 mph 96% 0.00 in
00:48 31.8 °F 30.8 °F 23.40 in Calm   -999 mph 96% 0.00 in
01:04 31.6 °F 30.6 °F 23.40 in Calm   -999 mph 96% 0.00 in
01:19 31.6 °F 30.6 °F 23.40 in Calm   -999 mph 96% 0.00 in
01:34 31.3 °F 30.3 °F 23.40 in Calm   -999 mph 96% 0.00 in
01:49 31.1 °F 30.1 °F 23.39 in Calm   -999 mph 96% 0.00 in
02:05 31.5 °F 30.7 °F 23.39 in Calm   -999 mph 97% 0.00 in
02:20 31.5 °F 31 °F 23.39 in Calm   -999 mph 98% 0.00 in
02:35 31.3 °F 30.8 °F 23.39 in Calm   -999 mph 98% 0.00 in
02:50 32 °F 31.8 °F 23.39 in Calm   -999 mph 99% 0.00 in
03:05 31.6 °F 31.4 °F 23.40 in Calm   -999 mph 99% 0.00 in
03:21 31.5 °F 31.3 °F 23.39 in Calm   -999 mph 99% 0.00 in
03:36 31.5 °F 31.3 °F 23.39 in Calm   -999 mph 99% 0.00 in
03:52 31.5 °F 31.3 °F 23.40 in Calm   -999 mph 99% 0.00 in
04:07 31.1 °F 30.9 °F 23.40 in Calm   -999 mph 99% 0.00 in
04:22 30.9 °F 30.7 °F 23.40 in Calm   -999 mph 99% 0.00 in
04:37 31.1 °F 30.6 °F 23.40 in Calm   -999 mph 98% 0.00 in
04:52 31.1 °F 30.6 °F 23.39 in Calm   -999 mph 98% 0.00 in
05:08 30.9 °F 30.4 °F 23.39 in Calm   -999 mph 98% 0.00 in
05:23 31.1 °F 30.9 °F 23.39 in Calm   -999 mph 99% 0.00 in
05:38 30.9 °F 30.7 °F 23.39 in Calm   -999 mph 99% 0.00 in
05:53 30.7 °F 30.5 °F 23.39 in Calm   -999 mph 99% 0.00 in
06:09 31.1 °F 30.9 °F 23.39 in Calm   -999 mph 99% 0.00 in
06:24 31.1 °F 30.9 °F 23.39 in Calm   -999 mph 99% 0.00 in
06:39 31.6 °F 31.4 °F 23.39 in Calm   -999 mph 99% 0.00 in
06:54 32 °F 31.8 °F 23.39 in Calm   -999 mph 99% 0.00 in
07:09 33.1 °F 32.8 °F 23.39 in Calm   -999 mph 99% 0.00 in
07:25 33.6 °F 33.3 °F 23.39 in Calm   -999 mph 99% 0.00 in
07:40 35.2 °F 34.9 °F 23.39 in Calm   -999 mph 99% 0.00 in
07:55 36.5 °F 36.2 °F 23.39 in Calm   -999 mph 99% 0.00 in
08:10 38.1 °F 37.8 °F 23.39 in Calm   -999 mph 99% 0.00 in
08:25 39 °F 37.7 °F 23.40 in Calm   -999 mph 95% 0.00 in
08:41 42.6 °F 38.1 °F 23.40 in North 2.7 mph -999 mph 84% 0.00 in
08:56 45.5 °F 38.4 °F 23.40 in NNW 2.2 mph -999 mph 76% 0.00 in
09:12 47.3 °F 37.3 °F 23.40 in Calm   -999 mph 68% 0.00 in
09:27 49.8 °F 38.5 °F 23.40 in Calm   -999 mph 65% 0.00 in
09:42 51.1 °F 37.7 °F 23.40 in NW 5.3 mph -999 mph 60% 0.00 in
09:58 52.3 °F 38.4 °F 23.41 in West 3.7 mph -999 mph 59% 0.00 in
10:13 52.5 °F 38.1 °F 23.41 in WNW 3.2 mph -999 mph 58% 0.00 in
10:28 54.3 °F 38.5 °F 23.40 in NW 4.2 mph -999 mph 55% 0.00 in
10:43 54.3 °F 37.5 °F 23.40 in NNW 4.2 mph -999 mph 53% 0.00 in
10:59 54.9 °F 38.1 °F 23.40 in NW 2.7 mph -999 mph 53% 0.00 in
11:14 56.5 °F 39.1 °F 23.41 in NW 5.3 mph -999 mph 52% 0.00 in
11:29 55.2 °F 38.8 °F 23.41 in NNW 7.3 mph -999 mph 54% 0.00 in
11:45 56.1 °F 38.7 °F 23.41 in WNW 5.8 mph -999 mph 52% 0.00 in
12:00 59 °F 39.3 °F 23.41 in WNW 5.3 mph -999 mph 48% 0.00 in
12:15 56.3 °F 38.4 °F 23.41 in SSE 2.2 mph -999 mph 51% 0.00 in
12:30 55.8 °F 37.9 °F 23.41 in North 1.7 mph -999 mph 51% 0.00 in
12:45 53.4 °F 37.6 °F 23.41 in Calm   -999 mph 55% 0.00 in
13:01 55.9 °F 38.5 °F 23.40 in Calm   -999 mph 52% 0.00 in
13:16 53.6 °F 37.4 °F 23.40 in East 1.7 mph -999 mph 54% 0.00 in
13:31 53.8 °F 38 °F 23.40 in SSW 1.7 mph -999 mph 55% 0.00 in
13:47 53.2 °F 38.4 °F 23.40 in NNW 2.2 mph -999 mph 57% 0.00 in
14:02 52.7 °F 39.2 °F 23.40 in SSE 5.8 mph -999 mph 60% 0.00 in
14:17 54.9 °F 40 °F 23.40 in NNW 3.2 mph -999 mph 57% 0.00 in
14:32 55.8 °F 38.9 °F 23.40 in NNW 4.2 mph -999 mph 53% 0.00 in
14:47 55.4 °F 38.6 °F 23.40 in NW 5.8 mph -999 mph 53% 0.00 in
15:03 55.4 °F 38.6 °F 23.40 in NNW 3.7 mph -999 mph 53% 0.00 in
15:18 55.6 °F 41.9 °F 23.40 in NW 2.7 mph -999 mph 60% 0.00 in
15:33 54 °F 41.7 °F 23.40 in SSE 3.7 mph -999 mph 63% 0.00 in
15:48 54 °F 41.3 °F 23.40 in NNW 4.2 mph -999 mph 62% 0.00 in
16:03 52.9 °F 40.2 °F 23.40 in SW 4.7 mph -999 mph 62% 0.00 in
16:19 56.5 °F 41.9 °F 23.39 in WNW 3.7 mph -999 mph 58% 0.00 in
16:35 60.3 °F 42.1 °F 23.39 in NNW 6.8 mph -999 mph 51% 0.00 in
16:50 61.7 °F 42.9 °F 23.39 in West 2.7 mph -999 mph 50% 0.00 in
17:05 63 °F 41.9 °F 23.39 in NW 4.2 mph -999 mph 46% 0.00 in
17:20 60.4 °F 42.2 °F 23.39 in Calm   -999 mph 51% 0.00 in
17:35 59.4 °F 39.2 °F 23.39 in NW 3.7 mph -999 mph 47% 0.00 in
17:51 56.5 °F 38.6 °F 23.39 in NNW 5.3 mph -999 mph 51% 0.00 in
18:06 54.5 °F 37.2 °F 23.39 in NNW 4.2 mph -999 mph 52% 0.00 in
18:21 54.7 °F 38.4 °F 23.39 in Calm   -999 mph 54% 0.00 in
18:37 59.2 °F 36.7 °F 23.39 in NW 2.2 mph -999 mph 43% 0.00 in
18:52 59.2 °F 44.9 °F 23.39 in NNW 3.2 mph -999 mph 59% 0.00 in
19:07 60.1 °F 43.9 °F 23.39 in Calm   -999 mph 55% 0.00 in
19:22 56.3 °F 44.7 °F 23.39 in Calm   -999 mph 65% 0.00 in
19:37 53.2 °F 42.1 °F 23.40 in Calm   -999 mph 66% 0.00 in
19:53 49.6 °F 40.9 °F 23.40 in Calm   -999 mph 72% 0.00 in
20:08 48.4 °F 39.8 °F 23.40 in Calm   -999 mph 72% 0.00 in
20:23 46.9 °F 39.4 °F 23.40 in Calm   -999 mph 75% 0.00 in
20:38 45.9 °F 39.1 °F 23.41 in Calm   -999 mph 77% 0.00 in
20:53 45.9 °F 40.1 °F 23.42 in NW 4.7 mph -999 mph 80% 0.00 in
21:09 47.5 °F 42.6 °F 23.42 in North 6.8 mph -999 mph 83% 0.00 in
21:24 47.5 °F 42.9 °F 23.42 in NNW 6.3 mph -999 mph 84% 0.00 in
21:40 47.1 °F 43.1 °F 23.42 in NNE 1.7 mph -999 mph 86% 0.00 in
21:55 45.9 °F 41.6 °F 23.43 in SSE 1.7 mph -999 mph 85% 0.00 in
22:10 44.4 °F 40.5 °F 23.43 in Calm   -999 mph 86% 0.00 in
22:25 43.5 °F 39.9 °F 23.43 in Calm   -999 mph 87% 0.00 in
22:40 42.8 °F 39.2 °F 23.44 in SSW 1.1 mph -999 mph 87% 0.00 in
22:56 42.4 °F 38.8 °F 23.44 in Calm   -999 mph 87% 0.00 in
23:11 41.9 °F 38.6 °F 23.44 in Calm   -999 mph 88% 0.00 in
23:26 41.4 °F 38.1 °F 23.44 in SSE 2.2 mph -999 mph 88% 0.00 in
23:41 41 °F 37.7 °F 23.44 in SSE 2.2 mph -999 mph 88% 0.00 in
23:57 40.6 °F 37.3 °F 23.44 in Calm   -999 mph 88% 0.00 in
Big Bear CA Weather